Dilidjan, Armenia

8:50 PM AMT on July 10, 2014 (GMT +0400)
Zvartnots (UDYZ) Elev 2838 ft | 40.15 °N, 44.40 °E | Change Station

Current weather conditions updated 20 minutes ago

Thunderstorm
Thunderstorm
84 °F
Feels Like 84 °F
N
11
Wind Variable Wind from ESE

Tomorrow is forecast to be Much Cooler than today. Afternoon showers and thunderstorms.

Today
High -- | Low -- °F
--% Chance of Precip.
Yesterday
High -- | Low -- °F
Precip. -- in
5:38 AM 8:33 PM
Waxing Gibbous, 95% visible
Pressure 29.77 in
Visibility 6.2 miles
Clouds Scattered Clouds 4000 ft
Mostly Cloudy 10000 ft
Dew Point 43 °F
Humidity 23%
Rainfall 0.00 in
Snow Depth Not available.
UV 0 out of 12
Pollen Not available.
Air Quality Not available.
Flu Activity Not available.
METAR UDYZ 101630Z 11005MPS 9999 TS SCT040CB BKN100 29/06 Q1008 R09/010070 TEMPO TSRA

More Conditions Fewer Conditions

Pressure 29.77 in
Visibility 6.2 miles
Clouds Scattered Clouds 4000 ft
Mostly Cloudy 10000 ft
Dew Point 43 °F
Humidity 23%
Rainfall 0.00 in
Snow Depth Not available.
UV 0 out of 12
Pollen Not available.
Air Quality Not available.
Flu Activity Not available.
METAR UDYZ 101630Z 11005MPS 9999 TS SCT040CB BKN100 29/06 Q1008 R09/010070 TEMPO TSRA

More Conditions Fewer Conditions

10-Day Weather Forecast

Almanac

Astronomy

Jul. 10, 2014 Rise Set
Actual Time 5:38 AM AMT 8:33 PM AMT
Civil Twilight 5:05 AM AMT 9:05 PM AMT
Nautical Twilight 4:23 AM AMT 9:47 PM AMT
Astronomical Twilight 3:35 AM AMT 10:35 PM AMT
Moon 6:23 PM AMT 3:29 AM AMT
Length of Visible Light 16h 00m
Length of Day
14h 55m
Tomorrow will be 1m 8s shorter.
Waxing Gibbous, 95% of the Moon is Illuminated
Today
Waxing Gibbous
Jul 12
Full
Jul 18
Last Quarter
Jul 26
New
Aug 3
First Quarter

Today's Extremes

Country Highs Country Lows

Community

WunderPhotos

Upload Photos

1,732,191 photos uploaded!

WunderBlogs® & News

Nearby

Snow Depth

Not available.

Earthquake Activity

City Distance Mag. Time & Date
No recent earthquake activity has been reported nearby.
Minimum magnitude displayed is 2.5.

Coastal Water Temperatures

Place Temperature
No Stations Reporting

Nearby Weather Stations

There are no personal weather stations in this area.